createdAt,value
2018-03-09T00:00:28.867Z,0.00
2018-03-09T00:02:00.683Z,0.00
2018-03-09T00:03:32.497Z,0.00
2018-03-09T00:05:04.314Z,0.00
2018-03-09T00:06:36.128Z,0.00
2018-03-09T00:08:08.043Z,0.00
2018-03-09T00:09:39.757Z,0.00
2018-03-09T00:11:11.574Z,0.00
2018-03-09T00:12:43.592Z,0.00
2018-03-09T00:14:15.203Z,0.00
2018-03-09T00:15:47.020Z,0.00
2018-03-09T00:17:18.834Z,0.00
2018-03-09T00:18:50.653Z,0.00
2018-03-09T00:20:22.568Z,0.00
2018-03-09T00:21:54.280Z,0.00
2018-03-09T00:23:26.095Z,0.00
2018-03-09T00:24:57.913Z,0.00
2018-03-09T00:26:29.836Z,0.00
2018-03-09T00:28:01.550Z,0.00
2018-03-09T00:29:33.355Z,0.00
2018-03-09T00:31:05.171Z,0.00
2018-03-09T00:32:37.007Z,0.00
2018-03-09T00:34:08.802Z,0.00
2018-03-09T00:35:40.617Z,0.00
2018-03-09T00:37:12.450Z,0.00
2018-03-09T00:38:44.248Z,0.00
2018-03-09T00:40:16.064Z,0.00
2018-03-09T00:41:47.878Z,0.00
2018-03-09T00:43:19.695Z,0.00
2018-03-09T00:44:51.667Z,0.00
2018-03-09T00:46:23.324Z,0.00
2018-03-09T00:47:55.141Z,0.00
2018-03-09T00:49:26.955Z,0.00
2018-03-09T00:50:58.869Z,0.00
2018-03-09T00:52:30.585Z,0.00
2018-03-09T00:54:02.399Z,0.00
2018-03-09T00:55:34.227Z,0.00
2018-03-09T00:57:06.031Z,0.00
2018-03-09T00:58:37.846Z,0.00
2018-03-09T01:00:09.660Z,0.00
2018-03-09T01:01:41.497Z,0.00
2018-03-09T01:03:13.393Z,0.00
2018-03-09T01:04:45.105Z,0.00
2018-03-09T01:06:16.921Z,0.00
2018-03-09T01:07:48.735Z,0.00
2018-03-09T01:09:20.549Z,0.00
2018-03-09T01:10:52.365Z,0.00
2018-03-09T01:12:24.184Z,0.00
2018-03-09T01:13:55.995Z,0.00
2018-03-09T01:15:28.066Z,0.00
2018-03-09T01:16:59.630Z,0.00
2018-03-09T01:18:31.484Z,0.00
2018-03-09T01:20:03.284Z,0.00
2018-03-09T01:21:35.280Z,0.00
2018-03-09T01:23:06.886Z,0.00
2018-03-09T01:24:38.702Z,0.00
2018-03-09T01:26:10.516Z,0.00
2018-03-09T01:27:42.333Z,0.00
2018-03-09T01:29:14.147Z,0.00
2018-03-09T01:30:45.969Z,0.00
2018-03-09T01:32:17.777Z,0.00
2018-03-09T01:33:49.598Z,0.00
2018-03-09T01:35:21.409Z,0.00
2018-03-09T01:36:53.249Z,0.00
2018-03-09T01:38:25.038Z,0.00
2018-03-09T01:39:56.960Z,0.00
2018-03-09T01:41:28.668Z,0.00
2018-03-09T01:43:00.490Z,0.00
2018-03-09T01:44:32.299Z,0.00
2018-03-09T01:46:04.415Z,0.00
2018-03-09T01:47:35.959Z,0.00
2018-03-09T01:49:07.744Z,0.00
2018-03-09T01:50:39.611Z,0.00
2018-03-09T01:52:11.646Z,0.00
2018-03-09T01:53:43.219Z,0.00
2018-03-09T01:55:15.005Z,0.00
2018-03-09T01:56:46.823Z,0.00
2018-03-09T01:58:18.735Z,0.00
2018-03-09T01:59:50.450Z,0.00
2018-03-09T02:01:22.266Z,0.00
2018-03-09T02:02:54.080Z,0.00
2018-03-09T02:04:25.894Z,0.00
2018-03-09T02:05:57.709Z,0.00
2018-03-09T02:07:29.574Z,0.00
2018-03-09T02:09:01.341Z,0.00
2018-03-09T02:10:33.182Z,0.00
2018-03-09T02:12:04.970Z,0.00
2018-03-09T02:13:36.786Z,0.00
2018-03-09T02:15:08.599Z,0.00
2018-03-09T02:16:40.816Z,0.00
2018-03-09T02:18:12.230Z,0.00
2018-03-09T02:19:44.060Z,0.00
2018-03-09T02:21:15.863Z,0.00
2018-03-09T02:22:47.825Z,0.00
2018-03-09T02:24:19.490Z,0.00
2018-03-09T02:25:51.306Z,0.00
2018-03-09T02:27:23.170Z,0.00
2018-03-09T02:28:54.935Z,0.00
2018-03-09T02:30:26.751Z,0.00
2018-03-09T02:31:58.568Z,0.00
2018-03-09T02:33:30.381Z,0.00
2018-03-09T02:35:02.297Z,0.00
2018-03-09T02:36:34.012Z,0.00
2018-03-09T02:38:05.827Z,0.00
2018-03-09T02:39:37.640Z,0.00
2018-03-09T02:41:09.455Z,0.00
2018-03-09T02:42:41.269Z,0.00
2018-03-09T02:44:13.084Z,0.00
2018-03-09T02:45:44.901Z,0.00
2018-03-09T02:47:17.081Z,0.00
2018-03-09T02:48:48.528Z,0.00
2018-03-09T02:50:20.346Z,0.00
2018-03-09T02:51:52.159Z,0.00
2018-03-09T02:53:24.188Z,0.00
2018-03-09T02:54:55.787Z,0.00
2018-03-09T02:56:27.602Z,0.00
2018-03-09T02:57:59.416Z,0.00
2018-03-09T02:59:31.233Z,0.00
2018-03-09T03:01:03.047Z,0.00
2018-03-09T03:02:34.861Z,0.00
2018-03-09T03:04:06.676Z,0.00
2018-03-09T03:05:38.494Z,0.00
2018-03-09T03:07:10.304Z,0.00
2018-03-09T03:08:42.118Z,0.00
2018-03-09T03:10:13.933Z,0.00
2018-03-09T03:11:45.849Z,0.00
2018-03-09T03:13:17.567Z,0.00
2018-03-09T03:14:49.378Z,0.00
2018-03-09T03:16:21.192Z,0.00
2018-03-09T03:17:53.007Z,0.00
2018-03-09T03:19:24.821Z,0.00
2018-03-09T03:20:56.636Z,0.00
2018-03-09T03:22:28.459Z,0.00
2018-03-09T03:24:00.367Z,0.00
2018-03-09T03:25:32.081Z,0.00
2018-03-09T03:27:03.896Z,0.00
2018-03-09T03:28:35.710Z,0.00
2018-03-09T03:30:07.626Z,0.00
2018-03-09T03:31:39.343Z,0.00
2018-03-09T03:33:11.159Z,0.00
2018-03-09T03:34:42.971Z,0.00
2018-03-09T03:36:14.786Z,0.00
2018-03-09T03:37:46.601Z,0.00
2018-03-09T03:39:18.413Z,0.00
2018-03-09T03:40:50.228Z,0.00
2018-03-09T03:42:22.043Z,0.00
2018-03-09T03:43:53.858Z,0.00
2018-03-09T03:45:25.673Z,0.00
2018-03-09T03:46:57.488Z,0.00
2018-03-09T03:48:29.406Z,0.00
2018-03-09T03:50:01.118Z,0.00
2018-03-09T03:51:32.933Z,0.00
2018-03-09T03:53:04.748Z,0.00
2018-03-09T03:54:36.714Z,0.00
2018-03-09T03:56:08.378Z,0.00
2018-03-09T03:57:40.193Z,0.00
2018-03-09T03:59:12.010Z,0.00
2018-03-09T04:00:43.823Z,0.00
2018-03-09T04:02:15.639Z,0.00
2018-03-09T04:03:47.452Z,0.00
2018-03-09T04:05:19.268Z,0.00
2018-03-09T04:06:51.183Z,0.00
2018-03-09T04:08:22.898Z,0.00
2018-03-09T04:09:54.713Z,0.00
2018-03-09T04:11:26.528Z,0.00
2018-03-09T04:12:58.343Z,0.00
2018-03-09T04:14:30.159Z,0.00
2018-03-09T04:16:01.973Z,0.00
2018-03-09T04:17:33.787Z,0.00
2018-03-09T04:19:05.602Z,0.00
2018-03-09T04:20:37.416Z,0.00
2018-03-09T04:22:09.231Z,0.00
2018-03-09T04:23:41.046Z,0.00
2018-03-09T04:25:13.110Z,0.00
2018-03-09T04:26:44.675Z,0.00
2018-03-09T04:28:16.490Z,0.00
2018-03-09T04:29:48.307Z,0.00
2018-03-09T04:31:20.124Z,0.00
2018-03-09T04:32:51.934Z,0.00
2018-03-09T04:34:23.749Z,0.00
2018-03-09T04:35:55.565Z,0.00
2018-03-09T04:37:27.379Z,0.00
2018-03-09T04:38:59.193Z,0.00
2018-03-09T04:40:31.008Z,0.00
2018-03-09T04:42:02.823Z,0.00
2018-03-09T04:43:34.738Z,0.00
2018-03-09T04:45:06.453Z,0.00
2018-03-09T04:46:38.268Z,0.00
2018-03-09T04:48:10.087Z,0.00
2018-03-09T04:49:42.201Z,0.00
2018-03-09T04:51:13.713Z,0.00
2018-03-09T04:52:45.528Z,0.00
2018-03-09T04:54:17.343Z,0.00
2018-03-09T04:55:49.358Z,0.00
2018-03-09T04:57:20.972Z,0.00
2018-03-09T04:58:52.787Z,0.00
2018-03-09T05:00:24.602Z,0.00
2018-03-09T05:01:56.516Z,0.00
2018-03-09T05:03:28.231Z,0.00
2018-03-09T05:05:00.048Z,0.00
2018-03-09T05:06:31.860Z,0.00
2018-03-09T05:08:03.675Z,0.00
2018-03-09T05:09:35.491Z,0.00
2018-03-09T05:11:07.306Z,0.00
2018-03-09T05:12:39.121Z,0.00
2018-03-09T05:14:10.934Z,0.00
2018-03-09T05:15:42.749Z,0.00
2018-03-09T05:17:14.566Z,0.00
2018-03-09T05:18:46.378Z,0.00
2018-03-09T05:20:18.294Z,0.00
2018-03-09T05:21:50.008Z,0.00
2018-03-09T05:23:21.822Z,0.00
2018-03-09T05:24:53.645Z,0.00
2018-03-09T05:26:25.601Z,0.00
2018-03-09T05:27:57.266Z,0.00
2018-03-09T05:29:29.080Z,0.00
2018-03-09T05:31:00.895Z,0.00
2018-03-09T05:32:32.710Z,0.00
2018-03-09T05:34:04.527Z,0.00
2018-03-09T05:35:36.339Z,0.00
2018-03-09T05:37:08.153Z,0.00
2018-03-09T05:38:40.068Z,0.00
2018-03-09T05:40:11.783Z,0.00
2018-03-09T05:41:43.597Z,0.00
2018-03-09T05:43:15.415Z,0.00
2018-03-09T05:44:47.253Z,0.00
2018-03-09T05:46:19.051Z,0.00
2018-03-09T05:47:50.855Z,0.00
2018-03-09T05:49:22.669Z,0.00
2018-03-09T05:50:54.734Z,0.00
2018-03-09T05:52:26.298Z,0.00
2018-03-09T05:53:58.115Z,0.00
2018-03-09T05:55:29.928Z,0.00
2018-03-09T05:57:01.943Z,0.00
2018-03-09T05:58:33.558Z,0.00
2018-03-09T06:00:05.371Z,0.00
2018-03-09T06:01:37.185Z,0.00
2018-03-09T06:03:09.005Z,0.00
2018-03-09T06:04:40.814Z,0.00
2018-03-09T06:06:12.629Z,0.00
2018-03-09T06:07:44.447Z,0.00
2018-03-09T06:09:16.257Z,0.00
2018-03-09T06:10:48.098Z,0.00
2018-03-09T06:12:19.886Z,0.00
2018-03-09T06:13:51.701Z,0.00
2018-03-09T06:15:23.617Z,0.00
2018-03-09T06:16:55.330Z,0.00
2018-03-09T06:18:27.144Z,0.00
2018-03-09T06:19:58.958Z,0.00
2018-03-09T06:21:30.773Z,0.00
2018-03-09T06:23:02.588Z,0.00
2018-03-09T06:24:34.403Z,0.00
2018-03-09T06:26:06.218Z,0.00
2018-03-09T06:27:38.141Z,0.00
2018-03-09T06:29:09.846Z,0.00
2018-03-09T06:30:41.660Z,0.00
2018-03-09T06:32:13.474Z,0.00
2018-03-09T06:33:45.391Z,0.00
2018-03-09T06:35:17.107Z,0.00
2018-03-09T06:36:48.920Z,0.00
2018-03-09T06:38:20.732Z,0.00
2018-03-09T06:39:52.546Z,0.00
2018-03-09T06:41:24.360Z,0.00
2018-03-09T06:42:56.174Z,0.00
2018-03-09T06:44:28.024Z,0.00
2018-03-09T06:45:59.806Z,0.00
2018-03-09T06:47:31.630Z,0.00
2018-03-09T06:49:03.433Z,0.00
2018-03-09T06:50:35.256Z,0.00
2018-03-09T06:52:07.412Z,0.00
2018-03-09T06:53:38.876Z,0.00
2018-03-09T06:55:10.691Z,0.00
2018-03-09T06:56:42.505Z,0.00
2018-03-09T06:58:14.420Z,0.00
2018-03-09T06:59:46.134Z,0.00
2018-03-09T07:01:17.949Z,0.00
2018-03-09T07:02:49.762Z,0.00
2018-03-09T07:04:21.576Z,0.00
2018-03-09T07:05:53.391Z,0.00
2018-03-09T07:07:25.205Z,0.00
2018-03-09T07:08:57.019Z,0.00
2018-03-09T07:10:28.934Z,0.00
2018-03-09T07:12:00.648Z,0.00
2018-03-09T07:13:32.462Z,0.00
2018-03-09T07:15:04.277Z,0.00
2018-03-09T07:16:36.091Z,0.00
2018-03-09T07:18:07.958Z,0.00
2018-03-09T07:19:39.719Z,0.00
2018-03-09T07:21:11.533Z,0.00
2018-03-09T07:22:43.597Z,0.00
2018-03-09T07:24:15.160Z,0.00
2018-03-09T07:25:46.975Z,0.00
2018-03-09T07:27:18.789Z,0.00
2018-03-09T07:28:50.804Z,0.00
2018-03-09T07:30:22.418Z,0.00
2018-03-09T07:31:54.234Z,0.00
2018-03-09T07:33:26.048Z,0.00
2018-03-09T07:34:57.862Z,0.00
2018-03-09T07:36:29.679Z,0.00
2018-03-09T07:38:01.492Z,0.00
2018-03-09T07:39:33.307Z,0.00
2018-03-09T07:41:05.122Z,0.00
2018-03-09T07:42:36.940Z,0.00
2018-03-09T07:44:08.755Z,0.00
2018-03-09T07:45:40.572Z,0.00
2018-03-09T07:47:12.481Z,0.00
2018-03-09T07:48:44.196Z,0.00
2018-03-09T07:50:16.011Z,0.00
2018-03-09T07:51:47.831Z,0.00
2018-03-09T07:53:19.891Z,0.00
2018-03-09T07:54:51.455Z,0.00
2018-03-09T07:56:23.270Z,0.00
2018-03-09T07:57:55.085Z,0.00
2018-03-09T07:59:26.999Z,0.00
2018-03-09T08:00:58.714Z,0.00
2018-03-09T08:02:30.529Z,0.00
2018-03-09T08:04:02.344Z,0.00
2018-03-09T08:05:34.258Z,0.00
2018-03-09T08:07:05.974Z,0.00
2018-03-09T08:08:37.788Z,0.00
2018-03-09T08:10:09.603Z,0.00
2018-03-09T08:11:41.441Z,0.00
2018-03-09T08:13:13.235Z,0.00
2018-03-09T08:14:45.047Z,0.00
2018-03-09T08:16:16.894Z,0.00
2018-03-09T08:17:48.677Z,0.00
2018-03-09T08:19:20.492Z,0.00
2018-03-09T08:20:52.311Z,0.00
2018-03-09T08:22:24.121Z,0.00
2018-03-09T08:23:56.037Z,0.00
2018-03-09T08:25:27.752Z,0.00
2018-03-09T08:26:59.605Z,0.00
2018-03-09T08:28:31.382Z,0.00
2018-03-09T08:30:03.297Z,0.00
2018-03-09T08:31:35.012Z,0.00
2018-03-09T08:33:06.827Z,0.00
2018-03-09T08:34:38.642Z,0.00
2018-03-09T08:36:10.456Z,0.00
2018-03-09T08:37:42.271Z,0.00
2018-03-09T08:39:14.085Z,0.00
2018-03-09T08:40:45.900Z,0.00
2018-03-09T08:42:17.815Z,4.00
2018-03-09T08:43:49.542Z,0.00
2018-03-09T08:45:21.344Z,4.00
2018-03-09T08:46:53.160Z,4.00
2018-03-09T08:48:24.974Z,8.00
2018-03-09T08:49:56.807Z,12.00
2018-03-09T08:51:28.605Z,20.00
2018-03-09T08:53:00.420Z,28.00
2018-03-09T08:54:32.486Z,44.00
2018-03-09T08:56:04.116Z,64.00
2018-03-09T08:57:35.862Z,84.00
2018-03-09T08:59:07.676Z,116.00
2018-03-09T09:00:39.692Z,152.00
2018-03-09T09:02:11.310Z,192.00
2018-03-09T09:03:43.120Z,240.00
2018-03-09T09:05:14.936Z,296.00
2018-03-09T09:06:46.751Z,348.00
2018-03-09T09:08:18.566Z,412.00
2018-03-09T09:09:50.380Z,476.00
2018-03-09T09:11:22.196Z,540.00
2018-03-09T09:12:54.012Z,600.00
2018-03-09T09:14:25.827Z,668.00
2018-03-09T09:15:57.640Z,720.00
2018-03-09T09:17:29.457Z,776.00
2018-03-09T09:19:01.372Z,856.00
2018-03-09T09:20:33.086Z,896.00
2018-03-09T09:22:04.900Z,928.00
2018-03-09T09:23:36.715Z,992.00
2018-03-09T09:25:08.787Z,1068.00
2018-03-09T09:26:40.344Z,1160.00
2018-03-09T09:28:12.360Z,1324.00
2018-03-09T09:29:43.974Z,1608.00
2018-03-09T09:31:16.218Z,1836.00
2018-03-09T09:32:47.660Z,2060.00
2018-03-09T09:34:21.575Z,2344.00
2018-03-09T09:35:51.360Z,2660.00
2018-03-09T09:37:23.151Z,2888.00
2018-03-09T09:40:26.679Z,3380.00
2018-03-09T09:41:58.536Z,3640.00
2018-03-09T09:43:30.313Z,4048.00
2018-03-09T09:45:02.122Z,4036.00
2018-03-09T09:46:34.625Z,4228.00
2018-03-09T09:48:06.056Z,4372.00
2018-03-09T09:49:37.567Z,4640.00
2018-03-09T09:52:42.182Z,5088.00
2018-03-09T09:54:13.745Z,5136.00
2018-03-09T09:55:44.928Z,5576.00
2018-03-09T09:57:17.110Z,5704.00
2018-03-09T09:58:49.317Z,6076.00
2018-03-09T10:00:20.803Z,6556.00
2018-03-09T10:01:52.725Z,7152.00
2018-03-09T10:04:56.328Z,8136.00
2018-03-09T10:06:28.065Z,8168.00
2018-03-09T10:07:59.350Z,7840.00
2018-03-09T10:09:31.524Z,7708.00
2018-03-09T10:11:02.983Z,8420.00
2018-03-09T10:12:35.066Z,9404.00
2018-03-09T10:14:06.719Z,9624.00
2018-03-09T10:15:38.632Z,9828.00
2018-03-09T10:17:10.588Z,9552.00
2018-03-09T10:20:14.029Z,10304.00
2018-03-09T10:21:45.695Z,11860.00
2018-03-09T10:23:17.727Z,12520.00
2018-03-09T10:24:49.328Z,11492.00
2018-03-09T10:26:21.838Z,11344.00
2018-03-09T10:27:53.129Z,11668.00
2018-03-09T10:29:24.781Z,12948.00
2018-03-09T10:30:56.921Z,15364.00
2018-03-09T10:32:28.772Z,14624.00
2018-03-09T10:34:00.738Z,13916.00
2018-03-09T10:37:04.068Z,14444.00
2018-03-09T10:38:35.736Z,14964.00
2018-03-09T10:40:07.804Z,15708.00
2018-03-09T10:41:39.522Z,15212.00
2018-03-09T10:43:11.138Z,14996.00
2018-03-09T10:44:43.484Z,15732.00
2018-03-09T10:46:14.826Z,16252.00
2018-03-09T10:47:46.593Z,17108.00
2018-03-09T10:50:50.533Z,19360.00
2018-03-09T10:52:22.315Z,19680.00
2018-03-09T10:53:55.278Z,20096.00
2018-03-09T10:55:25.691Z,20640.00
2018-03-09T10:58:29.694Z,22624.00
2018-03-09T11:00:01.672Z,24448.00
2018-03-09T11:01:32.962Z,24832.00
2018-03-09T11:03:04.779Z,25312.00
2018-03-09T11:06:08.517Z,26656.00
2018-03-09T11:07:40.237Z,25344.00
2018-03-09T11:09:12.256Z,26720.00
2018-03-09T11:10:43.879Z,28448.00
2018-03-09T11:12:15.693Z,25440.00
2018-03-09T11:15:20.310Z,23744.00
2018-03-09T11:16:51.415Z,26336.00
2018-03-09T11:18:22.973Z,24992.00
2018-03-09T11:19:54.801Z,25504.00
2018-03-09T11:21:26.729Z,26048.00
2018-03-09T11:22:58.432Z,24576.00
2018-03-09T11:24:31.152Z,27904.00
2018-03-09T11:26:02.074Z,29888.00
2018-03-09T11:27:33.894Z,29600.00
2018-03-09T11:29:06.034Z,30752.00
2018-03-09T11:30:37.540Z,31520.00
2018-03-09T11:32:13.486Z,30400.00
2018-03-09T11:33:41.176Z,28288.00
2018-03-09T11:35:13.305Z,25856.00
2018-03-09T11:36:44.824Z,25856.00
2018-03-09T11:38:16.825Z,24992.00
2018-03-09T11:39:48.459Z,23104.00
2018-03-09T11:42:52.205Z,17200.00
2018-03-09T11:45:56.078Z,17760.00
2018-03-09T11:47:27.562Z,17144.00
2018-03-09T11:48:59.383Z,17952.00
2018-03-09T11:50:31.203Z,18432.00
2018-03-09T11:52:03.027Z,17984.00
2018-03-09T11:53:34.844Z,16988.00
2018-03-09T11:55:06.739Z,16548.00
2018-03-09T11:56:38.484Z,15232.00
2018-03-09T11:58:10.303Z,14984.00
2018-03-09T11:59:42.124Z,14784.00
2018-03-09T12:01:14.139Z,14288.00
2018-03-09T12:02:46.068Z,13156.00
2018-03-09T12:04:17.584Z,12576.00
2018-03-09T12:05:49.403Z,12928.00
2018-03-09T12:07:21.412Z,15196.00
2018-03-09T12:08:53.249Z,17632.00
2018-03-09T12:10:24.861Z,20800.00
2018-03-09T12:11:56.679Z,20704.00
2018-03-09T12:13:28.499Z,18464.00
2018-03-09T12:15:00.326Z,17016.00
2018-03-09T12:16:32.137Z,16724.00
2018-03-09T12:18:03.956Z,17760.00
2018-03-09T12:19:36.178Z,21312.00
2018-03-09T12:21:07.594Z,24736.00
2018-03-09T12:22:39.412Z,27776.00
2018-03-09T12:24:11.232Z,28256.00
2018-03-09T12:25:43.063Z,32352.00
2018-03-09T12:27:15.174Z,39200.00
2018-03-09T12:28:46.688Z,44480.00
2018-03-09T12:30:18.508Z,38720.00
2018-03-09T12:31:50.328Z,33696.00
2018-03-09T12:33:22.452Z,37248.00
2018-03-09T12:34:54.171Z,38816.00
2018-03-09T12:36:26.093Z,37568.00
2018-03-09T12:37:58.115Z,36320.00
2018-03-09T12:39:29.436Z,37248.00
2018-03-09T12:41:01.253Z,43808.00
2018-03-09T12:42:33.075Z,44064.00
2018-03-09T12:44:04.895Z,84032.00
2018-03-09T12:45:36.716Z,48896.00
2018-03-09T12:47:08.604Z,37888.00
2018-03-09T12:48:40.361Z,32992.00
2018-03-09T12:50:12.183Z,31808.00
2018-03-09T12:51:44.006Z,33728.00
2018-03-09T12:53:16.131Z,34080.00
2018-03-09T12:54:47.738Z,33952.00
2018-03-09T12:56:19.573Z,35744.00
2018-03-09T12:57:51.293Z,45888.00
2018-03-09T12:59:23.319Z,34432.00
2018-03-09T13:00:56.074Z,34592.00
2018-03-09T13:02:26.875Z,36288.00
2018-03-09T13:03:58.677Z,37504.00
2018-03-09T13:05:30.710Z,34976.00
2018-03-09T13:07:02.290Z,32288.00
2018-03-09T13:08:34.349Z,33024.00
2018-03-09T13:10:05.872Z,36576.00
2018-03-09T13:11:37.692Z,40640.00
2018-03-09T13:13:09.513Z,45952.00
2018-03-09T13:14:41.436Z,48064.00
2018-03-09T13:16:13.360Z,42752.00
2018-03-09T13:17:44.979Z,39392.00
2018-03-09T13:19:16.802Z,36640.00
2018-03-09T13:20:48.624Z,34208.00
2018-03-09T13:22:20.447Z,33760.00
2018-03-09T13:23:52.270Z,37632.00
2018-03-09T13:25:24.094Z,45568.00
2018-03-09T13:26:55.918Z,51072.00
2018-03-09T13:28:27.739Z,47744.00
2018-03-09T13:29:59.562Z,39520.00
2018-03-09T13:31:31.386Z,32416.00
2018-03-09T13:34:35.144Z,30304.00
2018-03-09T13:36:06.856Z,31904.00
2018-03-09T13:37:38.679Z,34848.00
2018-03-09T13:39:10.501Z,39264.00
2018-03-09T13:40:42.433Z,46624.00
2018-03-09T13:42:14.603Z,49984.00
2018-03-09T13:43:45.975Z,48864.00
2018-03-09T13:45:17.854Z,51776.00
2018-03-09T13:46:49.618Z,48512.00
2018-03-09T13:48:25.485Z,45056.00
2018-03-09T13:49:58.636Z,43392.00
2018-03-09T13:51:25.089Z,42336.00
2018-03-09T13:52:57.013Z,45472.00
2018-03-09T13:54:28.738Z,48416.00
2018-03-09T13:56:00.594Z,46048.00
2018-03-09T13:57:32.386Z,45888.00
2018-03-09T13:59:04.213Z,43264.00
2018-03-09T14:00:36.197Z,40960.00
2018-03-09T14:02:08.058Z,44736.00
2018-03-09T14:03:39.705Z,42208.00
2018-03-09T14:05:11.814Z,36704.00
2018-03-09T14:06:43.330Z,35584.00
2018-03-09T14:08:15.154Z,37920.00
2018-03-09T14:09:47.214Z,37504.00
2018-03-09T14:12:50.730Z,37600.00
2018-03-09T14:14:22.551Z,36384.00
2018-03-09T14:15:54.268Z,34848.00
2018-03-09T14:17:26.091Z,35040.00
2018-03-09T14:18:58.016Z,38176.00
2018-03-09T14:20:29.855Z,41216.00
2018-03-09T14:23:33.488Z,51904.00
2018-03-09T14:26:37.246Z,49504.00
2018-03-09T14:28:08.871Z,49632.00
2018-03-09T14:29:40.684Z,59104.00
2018-03-09T14:31:12.510Z,59648.00
2018-03-09T14:32:44.435Z,86560.00
2018-03-09T14:34:16.316Z,110624.00
2018-03-09T14:35:47.984Z,62176.00
2018-03-09T14:37:19.814Z,55584.00
2018-03-09T14:38:51.635Z,54272.00
2018-03-09T14:40:23.461Z,54976.00
2018-03-09T14:41:55.296Z,58784.00
2018-03-09T14:43:27.113Z,59808.00
2018-03-09T14:44:59.244Z,85280.00
2018-03-09T14:46:30.763Z,82304.00
2018-03-09T14:48:02.795Z,61408.00
2018-03-09T14:49:34.623Z,49120.00
2018-03-09T14:51:06.342Z,41152.00
2018-03-09T14:52:38.068Z,38688.00
2018-03-09T14:54:09.894Z,39232.00
2018-03-09T14:55:41.724Z,44640.00
2018-03-09T14:57:13.746Z,45696.00
2018-03-09T14:58:45.373Z,46560.00
2018-03-09T15:00:17.461Z,44832.00
2018-03-09T15:01:49.021Z,40896.00
2018-03-09T15:03:20.860Z,35712.00
2018-03-09T15:04:52.671Z,31840.00
2018-03-09T15:06:24.494Z,31680.00
2018-03-09T15:07:56.319Z,32704.00
2018-03-09T15:09:28.246Z,34336.00
2018-03-09T15:11:00.281Z,38016.00
2018-03-09T15:12:31.790Z,43968.00
2018-03-09T15:14:03.614Z,41568.00
2018-03-09T15:15:35.841Z,41152.00
2018-03-09T15:18:39.085Z,40864.00
2018-03-09T15:20:11.213Z,43680.00
2018-03-09T15:21:42.733Z,47552.00
2018-03-09T15:23:14.558Z,52000.00
2018-03-09T15:24:46.385Z,58496.00
2018-03-09T15:26:18.206Z,103328.00
2018-03-09T15:27:50.128Z,60640.00
2018-03-09T15:29:21.854Z,112000.00
2018-03-09T15:30:53.982Z,122272.00
2018-03-09T15:32:25.508Z,53856.00
2018-03-09T15:33:57.633Z,51904.00
2018-03-09T15:35:29.358Z,52832.00
2018-03-09T15:37:01.511Z,58048.00
2018-03-09T15:38:32.807Z,56160.00
2018-03-09T15:40:04.633Z,61792.00
2018-03-09T15:41:36.462Z,81472.00
2018-03-09T15:43:08.287Z,128000.00
2018-03-09T15:44:40.118Z,112416.00
2018-03-09T15:46:12.139Z,123264.00
2018-03-09T15:47:43.968Z,104832.00
2018-03-09T15:50:47.723Z,126368.00
2018-03-09T15:53:51.079Z,54112.00
2018-03-09T15:55:23.208Z,63744.00
2018-03-09T15:56:54.731Z,117312.00
2018-03-09T15:58:26.566Z,50496.00
2018-03-09T16:01:30.784Z,54080.00
2018-03-09T16:03:02.243Z,135296.00
2018-03-09T16:06:05.894Z,135552.00
2018-03-09T16:09:09.650Z,130592.00
2018-03-09T16:10:42.310Z,122496.00
2018-03-09T16:12:13.001Z,97120.00
2018-03-09T16:13:45.132Z,95008.00
2018-03-09T16:15:16.656Z,59936.00
2018-03-09T16:16:48.485Z,50368.00
2018-03-09T16:18:20.516Z,50848.00
2018-03-09T16:19:52.156Z,53120.00
2018-03-09T16:21:24.073Z,143680.00
2018-03-09T16:22:55.798Z,139296.00
2018-03-09T16:24:27.622Z,51072.00
2018-03-09T16:26:00.290Z,89696.00
2018-03-09T16:30:34.932Z,64480.00
2018-03-09T16:32:07.081Z,46720.00
2018-03-09T16:33:39.521Z,48992.00
2018-03-09T16:35:10.618Z,72384.00
2018-03-09T16:36:42.546Z,47584.00
2018-03-09T16:38:14.068Z,49600.00
2018-03-09T16:39:46.190Z,42848.00
2018-03-09T16:42:49.545Z,40736.00
2018-03-09T16:44:21.472Z,37312.00
2018-03-09T16:45:53.877Z,34624.00
2018-03-09T16:47:25.468Z,35872.00
2018-03-09T16:48:57.989Z,37088.00
2018-03-09T16:50:28.890Z,40576.00
2018-03-09T16:52:00.506Z,42368.00
2018-03-09T16:53:32.322Z,48448.00
2018-03-09T16:55:04.253Z,42368.00
2018-03-09T16:58:08.330Z,120448.00
2018-03-09T17:01:11.608Z,54080.00
2018-03-09T17:05:46.921Z,112000.00
2018-03-09T17:07:18.749Z,69856.00
2018-03-09T17:08:50.572Z,64960.00
2018-03-09T17:10:22.397Z,40352.00
2018-03-09T17:11:54.225Z,41088.00
2018-03-09T17:13:26.149Z,60192.00
2018-03-09T17:16:30.006Z,117664.00
2018-03-09T17:18:01.730Z,113344.00
2018-03-09T17:19:33.659Z,123488.00
2018-03-09T17:21:05.181Z,124448.00
2018-03-09T17:22:37.539Z,118176.00
2018-03-09T17:24:08.869Z,95616.00
2018-03-09T17:25:40.664Z,102144.00
2018-03-09T17:27:12.550Z,116448.00
2018-03-09T17:28:44.322Z,123008.00
2018-03-09T17:30:16.151Z,119552.00
2018-03-09T17:33:20.117Z,113632.00
2018-03-09T17:34:51.641Z,107872.00
2018-03-09T17:40:59.269Z,95456.00
2018-03-09T17:42:30.798Z,40704.00
2018-03-09T17:44:02.622Z,29920.00
2018-03-09T17:45:34.451Z,30496.00
2018-03-09T17:47:06.298Z,38048.00
2018-03-09T17:48:38.107Z,107520.00
2018-03-09T17:50:10.134Z,100992.00
2018-03-09T17:51:41.788Z,93952.00
2018-03-09T17:54:45.512Z,101600.00
2018-03-09T17:56:17.471Z,99168.00
2018-03-09T17:57:49.272Z,88672.00
2018-03-09T17:59:20.893Z,74016.00
2018-03-09T18:00:52.720Z,88512.00
2018-03-09T18:02:24.546Z,88928.00
2018-03-09T18:03:56.372Z,95904.00
2018-03-09T18:05:28.200Z,95328.00
2018-03-09T18:07:00.027Z,71328.00
2018-03-09T18:08:31.853Z,75296.00
2018-03-09T18:10:03.987Z,30656.00
2018-03-09T18:13:07.795Z,76000.00
2018-03-09T18:14:39.193Z,87488.00
2018-03-09T18:16:11.299Z,93056.00
2018-03-09T18:17:42.818Z,93568.00
2018-03-09T18:19:14.746Z,69600.00
2018-03-09T18:20:46.473Z,93664.00
2018-03-09T18:22:18.352Z,32096.00
2018-03-09T18:23:50.366Z,30336.00
2018-03-09T18:26:53.783Z,35072.00
2018-03-09T18:31:29.264Z,19808.00
2018-03-09T18:33:01.394Z,19168.00
2018-03-09T18:34:32.913Z,20192.00
2018-03-09T18:36:04.745Z,20288.00
2018-03-09T18:37:36.564Z,21888.00
2018-03-09T18:39:08.389Z,23424.00
2018-03-09T18:40:40.329Z,31168.00
2018-03-09T18:42:12.064Z,30560.00
2018-03-09T18:43:44.065Z,48544.00
2018-03-09T18:46:47.511Z,59136.00
2018-03-09T18:48:19.364Z,58304.00
2018-03-09T18:49:51.168Z,52960.00
2018-03-09T18:51:22.987Z,53856.00
2018-03-09T18:54:26.737Z,56768.00
2018-03-09T18:55:58.458Z,56800.00
2018-03-09T18:57:30.284Z,56512.00
2018-03-09T18:59:02.108Z,55744.00
2018-03-09T19:00:33.933Z,55776.00
2018-03-09T19:03:37.583Z,51200.00
2018-03-09T19:05:09.444Z,48128.00
2018-03-09T19:06:41.294Z,50560.00
2018-03-09T19:08:13.118Z,49408.00
2018-03-09T19:09:44.925Z,47776.00
2018-03-09T19:11:16.734Z,45696.00
2018-03-09T19:12:48.832Z,45632.00
2018-03-09T19:14:21.500Z,44000.00
2018-03-09T19:15:52.382Z,42272.00
2018-03-09T19:17:24.332Z,43232.00
2018-03-09T19:18:56.033Z,42272.00
2018-03-09T19:20:27.854Z,40128.00
2018-03-09T19:21:59.479Z,40576.00
2018-03-09T19:23:31.303Z,40096.00
2018-03-09T19:25:03.126Z,35264.00
2018-03-09T19:26:35.012Z,37152.00
2018-03-09T19:28:06.775Z,36768.00
2018-03-09T19:29:38.598Z,35872.00
2018-03-09T19:31:10.523Z,34976.00
2018-03-09T19:32:42.450Z,34560.00
2018-03-09T19:34:14.071Z,33632.00
2018-03-09T19:35:46.099Z,32608.00
2018-03-09T19:38:49.745Z,30112.00
2018-03-09T19:40:21.570Z,29024.00
2018-03-09T19:41:53.191Z,28672.00
2018-03-09T19:43:25.016Z,27968.00
2018-03-09T19:44:56.839Z,27264.00
2018-03-09T19:46:28.663Z,26816.00
2018-03-09T19:48:00.486Z,26240.00
2018-03-09T19:49:32.309Z,25408.00
2018-03-09T19:51:04.233Z,24320.00
2018-03-09T19:52:36.262Z,23104.00
2018-03-09T19:54:11.778Z,22560.00
2018-03-09T19:55:41.914Z,21920.00
2018-03-09T19:57:11.948Z,21312.00
2018-03-09T19:58:43.444Z,20192.00
2018-03-09T20:00:15.656Z,20096.00
2018-03-09T20:01:46.895Z,19328.00
2018-03-09T20:03:18.752Z,18688.00
2018-03-09T20:04:50.541Z,18080.00
2018-03-09T20:06:22.365Z,17888.00